createdAt,value
2017-09-24T00:01:23.137Z,34.00
2017-09-24T00:03:53.986Z,31.77
2017-09-24T00:06:25.569Z,28.83
2017-09-24T00:08:57.927Z,30.30
2017-09-24T00:11:29.478Z,32.67
2017-09-24T00:14:00.280Z,32.70
2017-09-24T00:16:30.787Z,36.90
2017-09-24T00:19:03.216Z,35.50
2017-09-24T00:21:35.985Z,35.00
2017-09-24T00:24:08.941Z,31.23
2017-09-24T00:26:41.088Z,32.03
2017-09-24T00:29:13.257Z,34.03
2017-09-24T00:31:46.243Z,28.33
2017-09-24T00:34:17.928Z,37.90
2017-09-24T00:36:49.150Z,40.63
2017-09-24T00:39:22.920Z,34.33
2017-09-24T00:41:55.518Z,32.77
2017-09-24T00:44:26.759Z,33.03
2017-09-24T00:47:05.142Z,36.67
2017-09-24T00:49:41.180Z,41.70
2017-09-24T00:52:12.523Z,42.70
2017-09-24T00:54:44.417Z,36.90
2017-09-24T00:57:17.735Z,32.23
2017-09-24T00:59:49.881Z,31.40
2017-09-24T01:02:21.468Z,28.90
2017-09-24T01:04:52.516Z,31.00
2017-09-24T01:07:24.837Z,36.03
2017-09-24T01:09:56.083Z,35.90
2017-09-24T01:12:28.280Z,38.47
2017-09-24T01:14:59.548Z,37.10
2017-09-24T01:17:31.086Z,35.67
2017-09-24T01:20:03.268Z,42.83
2017-09-24T01:22:38.766Z,38.50
2017-09-24T01:25:10.911Z,35.87
2017-09-24T01:27:43.273Z,37.67
2017-09-24T01:30:14.674Z,36.20
2017-09-24T01:32:46.710Z,40.40
2017-09-24T01:43:27.661Z,34.63
2017-09-24T01:45:59.663Z,31.37
2017-09-24T01:48:31.576Z,33.03
2017-09-24T01:51:03.545Z,39.13
2017-09-24T01:53:35.972Z,34.87
2017-09-24T01:56:09.460Z,33.70
2017-09-24T01:58:41.591Z,35.07
2017-09-24T02:01:13.393Z,32.50
2017-09-24T02:03:45.317Z,39.53
2017-09-24T02:06:17.465Z,31.83
2017-09-24T02:08:49.162Z,31.03
2017-09-24T02:11:20.724Z,36.73
2017-09-24T02:13:53.391Z,34.57
2017-09-24T02:16:24.859Z,32.67
2017-09-24T02:18:56.866Z,32.80
2017-09-24T02:21:29.532Z,31.10
2017-09-24T02:24:02.506Z,30.10
2017-09-24T02:26:33.875Z,38.10
2017-09-24T02:29:05.782Z,33.83
2017-09-24T02:31:37.658Z,33.57
2017-09-24T02:34:29.571Z,33.37
2017-09-24T02:37:06.855Z,37.37
2017-09-24T02:39:38.125Z,32.40
2017-09-24T02:42:10.582Z,37.30
2017-09-24T02:44:43.141Z,40.67
2017-09-24T02:47:15.223Z,36.10
2017-09-24T02:49:46.703Z,38.43
2017-09-24T02:52:18.496Z,32.17
2017-09-24T02:54:50.739Z,32.97
2017-09-24T02:57:22.147Z,36.30
2017-09-24T02:59:54.271Z,32.80
2017-09-24T03:02:26.026Z,32.77
2017-09-24T03:05:04.617Z,34.87
2017-09-24T03:07:35.699Z,35.87
2017-09-24T03:10:07.649Z,34.83
2017-09-24T03:12:38.785Z,31.67
2017-09-24T03:15:09.816Z,31.00
2017-09-24T03:17:40.655Z,27.97
2017-09-24T03:20:12.454Z,39.40
2017-09-24T03:22:44.383Z,31.73
2017-09-24T03:25:16.891Z,37.27
2017-09-24T03:27:49.146Z,32.47
2017-09-24T03:30:20.953Z,36.03
2017-09-24T03:32:53.182Z,35.43
2017-09-24T03:35:24.567Z,40.97
2017-09-24T03:37:55.944Z,29.97
2017-09-24T03:40:27.976Z,30.13
2017-09-24T03:42:58.607Z,28.00
2017-09-24T03:45:30.381Z,28.30
2017-09-24T03:48:01.553Z,26.03
2017-09-24T03:50:32.423Z,27.90
2017-09-24T03:53:04.142Z,31.37
2017-09-24T03:55:34.552Z,31.03
2017-09-24T03:58:05.642Z,28.90
2017-09-24T04:00:37.828Z,32.10
2017-09-24T04:03:09.158Z,28.80
2017-09-24T04:05:40.200Z,29.70
2017-09-24T04:08:11.406Z,28.67
2017-09-24T04:10:42.919Z,29.90
2017-09-24T04:13:14.752Z,30.23
2017-09-24T04:15:47.355Z,29.33
2017-09-24T04:18:20.352Z,27.87
2017-09-24T04:20:54.915Z,29.30
2017-09-24T04:23:26.962Z,27.07
2017-09-24T04:25:58.593Z,25.37
2017-09-24T04:28:30.892Z,26.17
2017-09-24T04:31:11.637Z,24.97
2017-09-24T04:33:52.928Z,28.80
2017-09-24T04:36:49.903Z,28.30
2017-09-24T04:39:22.859Z,26.77
2017-09-24T04:41:54.619Z,26.67
2017-09-24T04:44:25.609Z,27.97
2017-09-24T04:46:57.178Z,24.63
2017-09-24T04:49:29.091Z,21.23
2017-09-24T04:51:59.559Z,23.83
2017-09-24T04:54:30.567Z,27.63
2017-09-24T04:57:02.454Z,25.50
2017-09-24T04:59:34.406Z,29.70
2017-09-24T05:02:06.542Z,26.97
2017-09-24T05:04:39.036Z,25.50
2017-09-24T05:07:10.562Z,23.13
2017-09-24T05:09:42.441Z,28.73
2017-09-24T05:12:14.174Z,23.67
2017-09-24T05:14:49.767Z,29.10
2017-09-24T05:17:21.595Z,27.60
2017-09-24T05:19:52.295Z,31.80
2017-09-24T05:22:24.248Z,31.03
2017-09-24T05:24:56.905Z,30.73
2017-09-24T05:27:31.851Z,33.07
2017-09-24T05:30:03.281Z,36.87
2017-09-24T05:32:34.993Z,37.93
2017-09-24T05:35:07.212Z,37.17
2017-09-24T05:37:39.706Z,43.43
2017-09-24T05:40:11.056Z,42.70
2017-09-24T05:42:43.085Z,44.77
2017-09-24T05:45:16.210Z,41.27
2017-09-24T05:47:47.372Z,37.23
2017-09-24T05:50:19.791Z,41.93
2017-09-24T05:52:51.772Z,39.10
2017-09-24T05:55:23.466Z,39.57
2017-09-24T05:57:55.628Z,34.47
2017-09-24T06:00:27.785Z,36.53
2017-09-24T06:02:59.542Z,32.93
2017-09-24T06:05:30.876Z,32.83
2017-09-24T06:08:03.890Z,32.50
2017-09-24T06:10:35.572Z,29.87
2017-09-24T06:13:06.519Z,32.67
2017-09-24T06:15:37.058Z,33.47
2017-09-24T06:18:08.318Z,30.40
2017-09-24T06:20:38.872Z,28.90
2017-09-24T06:23:14.559Z,29.87
2017-09-24T06:25:47.756Z,30.57
2017-09-24T06:28:18.970Z,31.27
2017-09-24T06:30:51.127Z,31.17
2017-09-24T06:33:22.886Z,30.40
2017-09-24T06:35:53.856Z,30.73
2017-09-24T06:38:25.314Z,28.27
2017-09-24T06:40:56.299Z,31.30
2017-09-24T06:43:26.871Z,34.63
2017-09-24T06:45:57.623Z,31.80
2017-09-24T06:48:28.936Z,31.70
2017-09-24T06:50:59.760Z,34.23
2017-09-24T06:53:30.936Z,35.77
2017-09-24T06:56:03.176Z,31.30
2017-09-24T06:58:35.573Z,30.77
2017-09-24T07:01:08.301Z,31.53
2017-09-24T07:03:42.413Z,31.67
2017-09-24T07:06:13.664Z,34.87
2017-09-24T07:08:44.977Z,29.50
2017-09-24T07:11:18.312Z,33.20
2017-09-24T07:13:50.999Z,30.47
2017-09-24T07:16:22.079Z,31.47
2017-09-24T07:21:34.962Z,26.63
2017-09-24T07:24:09.033Z,26.80
2017-09-24T07:26:40.206Z,25.83
2017-09-24T07:29:16.331Z,27.77
2017-09-24T07:31:49.245Z,26.20
2017-09-24T07:34:19.935Z,25.60
2017-09-24T07:36:54.112Z,25.77
2017-09-24T07:39:26.095Z,24.80
2017-09-24T07:41:58.144Z,23.20
2017-09-24T07:44:35.809Z,21.80
2017-09-24T07:47:07.304Z,19.43
2017-09-24T07:49:42.082Z,18.33
2017-09-24T07:52:14.671Z,19.10
2017-09-24T07:54:46.888Z,17.90
2017-09-24T07:57:18.114Z,16.90
2017-09-24T07:59:52.971Z,16.63
2017-09-24T08:02:26.682Z,17.40
2017-09-24T08:05:07.646Z,16.47
2017-09-24T08:07:41.288Z,16.40
2017-09-24T08:10:14.938Z,15.93
2017-09-24T08:12:47.672Z,15.27
2017-09-24T08:15:24.772Z,15.20
2017-09-24T08:17:59.425Z,15.33
2017-09-24T08:20:31.279Z,14.90
2017-09-24T08:23:05.936Z,14.67
2017-09-24T08:25:38.123Z,13.93
2017-09-24T08:28:09.841Z,17.00
2017-09-24T08:30:42.327Z,14.90
2017-09-24T08:33:14.164Z,15.37
2017-09-24T08:35:46.759Z,15.70
2017-09-24T08:38:18.956Z,15.93
2017-09-24T08:40:51.304Z,16.20
2017-09-24T08:43:22.651Z,15.60
2017-09-24T08:45:54.224Z,15.80
2017-09-24T08:48:26.712Z,15.70
2017-09-24T08:50:59.530Z,14.43
2017-09-24T08:53:32.374Z,13.83
2017-09-24T08:56:05.684Z,14.03
2017-09-24T08:58:38.378Z,13.90
2017-09-24T09:01:10.207Z,17.20
2017-09-24T09:03:41.191Z,18.77
2017-09-24T09:06:12.196Z,17.67
2017-09-24T09:08:44.415Z,21.30
2017-09-24T09:11:16.007Z,19.27
2017-09-24T09:13:49.077Z,19.13
2017-09-24T09:16:21.433Z,19.10
2017-09-24T09:18:53.281Z,20.47
2017-09-24T09:21:38.496Z,19.70
2017-09-24T09:24:11.046Z,21.10
2017-09-24T09:26:42.823Z,19.63
2017-09-24T09:29:15.910Z,17.97
2017-09-24T09:31:48.045Z,19.30
2017-09-24T09:34:34.261Z,16.77
2017-09-24T09:37:07.392Z,18.50
2017-09-24T09:39:39.927Z,19.53
2017-09-24T09:42:12.036Z,17.87
2017-09-24T09:44:55.137Z,20.13
2017-09-24T09:47:30.928Z,19.47
2017-09-24T09:50:03.747Z,17.70
2017-09-24T09:52:37.549Z,15.27
2017-09-24T09:55:11.463Z,16.93
2017-09-24T09:57:44.497Z,15.30
2017-09-24T10:00:17.603Z,14.77
2017-09-24T10:02:49.310Z,14.90
2017-09-24T10:05:23.604Z,13.07
2017-09-24T10:10:18.085Z,14.60
2017-09-24T10:12:50.820Z,13.77
2017-09-24T10:18:15.050Z,13.97
2017-09-24T10:20:46.161Z,13.80
2017-09-24T10:23:18.899Z,13.27
2017-09-24T10:25:52.039Z,12.87
2017-09-24T10:28:39.851Z,12.67
2017-09-24T10:31:24.670Z,11.60
2017-09-24T10:34:00.834Z,11.10
2017-09-24T10:36:32.579Z,11.40
2017-09-24T10:39:06.347Z,13.60
2017-09-24T10:41:53.628Z,11.57
2017-09-24T10:44:26.260Z,10.63
2017-09-24T10:47:00.024Z,10.80
2017-09-24T10:49:32.161Z,11.10
2017-09-24T10:52:04.813Z,12.30
2017-09-24T10:54:37.123Z,11.40
2017-09-24T10:57:09.328Z,11.43
2017-09-24T10:59:41.233Z,12.30
2017-09-24T11:02:13.085Z,11.13
2017-09-24T11:04:48.016Z,11.83
2017-09-24T11:07:20.982Z,12.00
2017-09-24T11:09:52.942Z,12.70
2017-09-24T11:12:30.239Z,12.60
2017-09-24T11:15:01.730Z,10.77
2017-09-24T11:17:33.104Z,12.30
2017-09-24T11:20:03.887Z,11.93
2017-09-24T11:22:37.057Z,11.70
2017-09-24T11:25:09.158Z,11.30
2017-09-24T11:27:41.439Z,11.87
2017-09-24T11:30:14.023Z,12.10
2017-09-24T11:32:49.870Z,11.70
2017-09-24T11:35:23.202Z,11.80
2017-09-24T11:37:54.705Z,12.83
2017-09-24T11:40:27.434Z,12.03
2017-09-24T11:42:58.989Z,11.17
2017-09-24T11:45:33.787Z,11.10
2017-09-24T11:48:10.562Z,10.87
2017-09-24T11:50:45.730Z,11.20
2017-09-24T11:53:17.440Z,13.40
2017-09-24T11:55:55.404Z,11.43
2017-09-24T11:58:27.298Z,12.30
2017-09-24T12:01:00.032Z,10.60
2017-09-24T12:03:30.599Z,11.57
2017-09-24T12:06:03.890Z,12.30
2017-09-24T12:08:35.616Z,10.60
2017-09-24T12:11:06.197Z,10.60
2017-09-24T12:13:38.064Z,10.00
2017-09-24T12:16:08.961Z,10.30
2017-09-24T12:18:40.378Z,11.20
2017-09-24T12:21:12.866Z,11.43
2017-09-24T12:23:44.553Z,11.40
2017-09-24T12:26:15.335Z,11.00
2017-09-24T12:28:45.812Z,12.30
2017-09-24T12:31:19.174Z,10.60
2017-09-24T12:33:50.212Z,11.53
2017-09-24T12:36:21.806Z,11.10
2017-09-24T12:41:39.994Z,10.57
2017-09-24T12:44:14.519Z,10.70
2017-09-24T12:46:52.991Z,11.37
2017-09-24T12:49:25.784Z,11.60
2017-09-24T12:54:24.772Z,13.57
2017-09-24T12:56:55.883Z,11.83
2017-09-24T12:59:26.413Z,11.87
2017-09-24T13:01:57.000Z,13.17
2017-09-24T13:04:29.087Z,12.30
2017-09-24T13:07:00.999Z,13.20
2017-09-24T13:09:32.916Z,13.00
2017-09-24T13:12:11.318Z,12.97
2017-09-24T13:14:42.075Z,11.60
2017-09-24T13:17:14.472Z,11.53
2017-09-24T13:19:45.009Z,11.87
2017-09-24T13:22:17.398Z,11.80
2017-09-24T13:24:49.845Z,11.17
2017-09-24T13:27:20.854Z,11.47
2017-09-24T13:29:52.157Z,11.90
2017-09-24T13:32:23.007Z,13.00
2017-09-24T13:34:59.580Z,14.40
2017-09-24T13:37:31.202Z,12.03
2017-09-24T13:40:10.599Z,12.60
2017-09-24T13:42:48.446Z,13.07
2017-09-24T13:45:26.032Z,12.83
2017-09-24T13:47:59.191Z,12.70
2017-09-24T13:50:32.049Z,13.73
2017-09-24T13:53:04.315Z,13.43
2017-09-24T13:55:36.151Z,13.30
2017-09-24T13:58:10.871Z,13.50
2017-09-24T14:00:45.309Z,13.70
2017-09-24T14:03:18.819Z,12.43
2017-09-24T14:05:50.688Z,13.40
2017-09-24T14:08:21.993Z,13.80
2017-09-24T14:10:53.987Z,12.93
2017-09-24T14:13:27.415Z,12.93
2017-09-24T14:16:00.944Z,13.87
2017-09-24T14:18:35.730Z,15.23
2017-09-24T14:21:07.092Z,13.30
2017-09-24T14:23:39.754Z,14.37
2017-09-24T14:26:12.455Z,14.10
2017-09-24T14:28:46.708Z,13.30
2017-09-24T14:31:17.536Z,14.37
2017-09-24T14:33:49.067Z,13.30
2017-09-24T14:36:20.601Z,13.03
2017-09-24T14:38:52.116Z,13.27
2017-09-24T14:41:24.044Z,13.63
2017-09-24T14:46:42.267Z,16.50
2017-09-24T14:49:15.096Z,14.10
2017-09-24T14:51:46.563Z,14.57
2017-09-24T14:54:18.434Z,15.80
2017-09-24T14:56:52.038Z,16.00
2017-09-24T14:59:24.514Z,14.10
2017-09-24T15:01:57.001Z,14.10
2017-09-24T15:04:28.434Z,14.63
2017-09-24T15:06:59.393Z,15.50
2017-09-24T15:09:30.004Z,15.73
2017-09-24T15:12:01.521Z,15.30
2017-09-24T15:14:34.798Z,17.80
2017-09-24T15:17:06.172Z,20.63
2017-09-24T15:19:37.452Z,17.17
2017-09-24T15:22:10.729Z,17.60
2017-09-24T15:24:42.857Z,17.23
2017-09-24T15:27:14.917Z,16.37
2017-09-24T15:29:45.950Z,18.33
2017-09-24T15:32:52.968Z,15.40
2017-09-24T15:35:28.633Z,17.07
2017-09-24T15:38:06.740Z,15.10
2017-09-24T15:40:38.266Z,14.37
2017-09-24T15:43:10.338Z,15.67
2017-09-24T15:45:42.762Z,14.47
2017-09-24T15:48:16.463Z,14.83
2017-09-24T15:50:48.095Z,15.10
2017-09-24T15:53:20.379Z,18.70
2017-09-24T15:56:00.786Z,14.30
2017-09-24T15:58:37.143Z,16.80
2017-09-24T16:01:09.539Z,16.67
2017-09-24T16:03:42.349Z,15.37
2017-09-24T16:06:14.408Z,17.40
2017-09-24T16:08:47.113Z,16.47
2017-09-24T16:11:20.296Z,15.07
2017-09-24T16:13:54.264Z,15.30
2017-09-24T16:16:26.987Z,15.20
2017-09-24T16:21:37.426Z,15.30
2017-09-24T16:24:12.864Z,17.60
2017-09-24T16:27:02.906Z,15.47
2017-09-24T16:29:35.522Z,16.10
2017-09-24T16:32:07.533Z,16.00
2017-09-24T16:34:43.785Z,16.30
2017-09-24T16:37:17.278Z,16.10
2017-09-24T16:39:53.224Z,16.30
2017-09-24T16:42:27.208Z,17.60
2017-09-24T16:45:02.517Z,16.50
2017-09-24T16:47:34.296Z,19.40
2017-09-24T16:50:06.655Z,17.77
2017-09-24T16:52:38.470Z,19.33
2017-09-24T16:55:10.628Z,18.33
2017-09-24T16:57:43.408Z,18.63
2017-09-24T17:00:16.484Z,17.30
2017-09-24T17:02:48.560Z,20.00
2017-09-24T17:05:21.091Z,20.37
2017-09-24T17:07:53.350Z,20.80
2017-09-24T17:10:32.330Z,22.20
2017-09-24T17:13:05.034Z,21.13
2017-09-24T17:15:37.095Z,23.33
2017-09-24T17:18:08.600Z,22.40
2017-09-24T17:20:40.356Z,21.43
2017-09-24T17:23:11.980Z,22.00
2017-09-24T17:25:45.454Z,22.10
2017-09-24T17:28:17.351Z,21.33
2017-09-24T17:30:49.207Z,22.07
2017-09-24T17:33:21.695Z,21.67
2017-09-24T17:35:53.282Z,21.57
2017-09-24T17:38:25.700Z,22.33
2017-09-24T17:40:57.563Z,22.37
2017-09-24T17:43:29.523Z,22.20
2017-09-24T17:46:01.757Z,22.20
2017-09-24T17:48:34.967Z,21.10
2017-09-24T17:51:08.222Z,23.33
2017-09-24T17:53:41.098Z,22.90
2017-09-24T17:56:13.655Z,23.00
2017-09-24T17:58:47.071Z,25.50
2017-09-24T18:01:22.092Z,26.23
2017-09-24T18:03:54.974Z,29.30
2017-09-24T18:06:31.757Z,23.77
2017-09-24T18:09:05.786Z,23.70
2017-09-24T18:11:37.808Z,24.00
2017-09-24T18:14:10.543Z,26.03
2017-09-24T18:16:43.341Z,23.53
2017-09-24T18:19:15.810Z,24.37
2017-09-24T18:21:49.392Z,22.57
2017-09-24T18:24:23.655Z,23.40
2017-09-24T18:26:54.320Z,23.13
2017-09-24T18:29:27.074Z,23.77
2017-09-24T18:32:00.758Z,21.10
2017-09-24T18:34:32.179Z,21.43
2017-09-24T18:37:03.292Z,22.03
2017-09-24T18:39:52.179Z,21.03
2017-09-24T18:42:24.359Z,23.93
2017-09-24T18:45:06.478Z,23.07
2017-09-24T18:47:47.244Z,20.30
2017-09-24T18:50:19.945Z,24.03
2017-09-24T18:52:51.589Z,22.17
2017-09-24T18:55:22.358Z,22.17
2017-09-24T18:57:54.746Z,25.27
2017-09-24T19:00:26.665Z,22.80
2017-09-24T19:03:01.228Z,28.00
2017-09-24T19:05:34.970Z,23.23
2017-09-24T19:08:14.101Z,24.63
2017-09-24T19:10:46.413Z,24.13
2017-09-24T19:13:19.196Z,25.57
2017-09-24T19:15:51.952Z,20.73
2017-09-24T19:18:24.312Z,33.33
2017-09-24T19:20:56.774Z,25.00
2017-09-24T19:23:28.766Z,23.90
2017-09-24T19:26:02.026Z,22.37
2017-09-24T19:28:33.835Z,25.13
2017-09-24T19:31:05.256Z,24.47
2017-09-24T19:33:36.125Z,24.53
2017-09-24T19:36:07.901Z,24.83
2017-09-24T19:38:39.080Z,20.87
2017-09-24T19:41:14.855Z,20.70
2017-09-24T19:43:48.709Z,23.30
2017-09-24T19:46:24.675Z,24.57
2017-09-24T19:48:57.851Z,24.43
2017-09-24T19:51:32.319Z,24.90
2017-09-24T19:54:04.373Z,21.40
2017-09-24T19:56:36.424Z,23.53
2017-09-24T19:59:08.174Z,20.93
2017-09-24T20:01:42.376Z,24.00
2017-09-24T20:04:15.763Z,19.87
2017-09-24T20:06:47.553Z,20.10
2017-09-24T20:09:19.217Z,19.40
2017-09-24T20:11:50.892Z,19.43
2017-09-24T20:14:23.482Z,19.07
2017-09-24T20:16:56.723Z,18.60
2017-09-24T20:19:28.184Z,20.47
2017-09-24T20:21:59.818Z,18.10
2017-09-24T20:24:37.920Z,19.83
2017-09-24T20:27:09.560Z,20.67
2017-09-24T20:29:41.249Z,20.97
2017-09-24T20:32:13.087Z,20.57
2017-09-24T20:34:45.838Z,21.03
2017-09-24T20:37:18.144Z,23.03
2017-09-24T20:39:50.153Z,21.93
2017-09-24T20:42:22.862Z,22.83
2017-09-24T20:44:54.840Z,23.07
2017-09-24T20:47:26.551Z,21.53
2017-09-24T20:49:58.585Z,22.97
2017-09-24T20:52:38.887Z,22.97
2017-09-24T20:55:09.983Z,26.60
2017-09-24T20:57:42.667Z,23.40
2017-09-24T21:00:22.842Z,25.83
2017-09-24T21:02:55.026Z,26.40
2017-09-24T21:05:27.466Z,24.10
2017-09-24T21:08:01.835Z,24.27
2017-09-24T21:10:35.266Z,26.90
2017-09-24T21:13:10.319Z,23.20
2017-09-24T21:15:43.895Z,23.93
2017-09-24T21:18:16.901Z,25.77
2017-09-24T21:20:49.039Z,24.70
2017-09-24T21:23:21.624Z,25.33
2017-09-24T21:25:54.145Z,25.83
2017-09-24T21:28:26.753Z,27.77
2017-09-24T21:30:58.437Z,26.33
2017-09-24T21:33:30.031Z,28.20
2017-09-24T21:36:02.055Z,29.17
2017-09-24T21:38:34.500Z,28.30
2017-09-24T21:41:08.095Z,31.57
2017-09-24T21:43:39.496Z,27.87
2017-09-24T21:46:10.942Z,32.20
2017-09-24T21:48:43.128Z,30.40
2017-09-24T21:53:52.971Z,30.50
2017-09-24T21:56:25.248Z,33.50
2017-09-24T21:59:02.346Z,35.03
2017-09-24T22:01:35.245Z,36.00
2017-09-24T22:04:21.155Z,34.63
2017-09-24T22:07:08.130Z,33.70
2017-09-24T22:09:39.721Z,33.70
2017-09-24T22:12:26.345Z,36.67
2017-09-24T22:14:58.626Z,39.83
2017-09-24T22:17:29.917Z,32.23
2017-09-24T22:20:02.934Z,35.37
2017-09-24T22:22:34.270Z,34.20
2017-09-24T22:25:11.547Z,33.87
2017-09-24T22:27:48.786Z,36.70
2017-09-24T22:30:21.112Z,37.10
2017-09-24T22:32:53.705Z,35.50
2017-09-24T22:35:26.007Z,36.73
2017-09-24T22:37:58.661Z,37.63
2017-09-24T22:40:31.851Z,38.97
2017-09-24T22:43:04.393Z,34.40
2017-09-24T22:45:36.354Z,36.87
2017-09-24T22:48:08.258Z,41.30
2017-09-24T22:50:40.965Z,38.10
2017-09-24T22:53:12.260Z,38.07
2017-09-24T22:55:43.606Z,38.07
2017-09-24T22:58:14.834Z,38.47
2017-09-24T23:00:46.872Z,37.30
2017-09-24T23:03:21.277Z,37.87
2017-09-24T23:05:53.468Z,39.53
2017-09-24T23:08:24.558Z,36.47
2017-09-24T23:10:56.787Z,41.83
2017-09-24T23:13:27.718Z,43.07
2017-09-24T23:15:58.258Z,42.90
2017-09-24T23:18:30.464Z,36.60
2017-09-24T23:21:02.231Z,43.23
2017-09-24T23:23:35.644Z,38.20
2017-09-24T23:26:07.453Z,45.20
2017-09-24T23:28:40.527Z,39.17
2017-09-24T23:31:12.086Z,41.40
2017-09-24T23:33:42.438Z,43.77
2017-09-24T23:36:21.136Z,50.10
2017-09-24T23:38:59.469Z,36.70
2017-09-24T23:41:40.858Z,40.93
2017-09-24T23:44:22.773Z,30.33
2017-09-24T23:47:04.714Z,41.80
2017-09-24T23:49:47.001Z,39.20
2017-09-24T23:52:24.703Z,41.47
2017-09-24T23:55:11.720Z,46.83
2017-09-24T23:57:58.297Z,31.27
